Fort Yates, North Dakota
Current Conditions -  °F | °C
As of 3:15 AM on Tuesday 21 Oct 2014 (Local Time) from K7L2 Reporting Station
Clear Clear  
Wind Chill: 52°   Ceiling: Unl
Heat Index: 52°   Visibility: 10mi
Dew Point: 36°   Wind: 20mph
Humidity: 54%   Direction: 140°SE
Pressure: 29.87"   Gusts: 28mph
Location:  46.09°N, 100.64°W
Report Text: K7L2 210915Z AUTO 14017G24KT 10SM CLR 11/02 A2987 RMK AO2 PWINO PNO
Loading
Personal Weather Stations






























Interactive Weather Map
Tropical Storm Tracking
New forecast layout! Learn more

10-Day Weather Forecast

Advertisements
Track Severe Weather on mobile